Arsenal, Arkansas
Current Conditions -  °F | °C
As of 4:53 AM on Friday 31 Oct 2014 (Local Time) from KPBF Reporting Station
Clear Clear  
Wind Chill: 55°   Ceiling: Unl
Heat Index: 55°   Visibility: 10mi
Dew Point: 44°   Wind: 9mph
Humidity: 67%   Direction: 320°NW
Pressure: 30.05"   Gusts: NA
Location:  34.193°N, 91.9403°W
Report Text: KPBF 310953Z AUTO 32008KT 10SM CLR 13/07 A3005 RMK AO2 SLP175 T01280067
Loading
Personal Weather Stations






























Interactive Weather Map
Tropical Storm Tracking
New forecast layout! Learn more

10-Day Weather Forecast

Advertisements
Track Severe Weather on mobile